sensor_id;sensor_type;location;lat;lon;timestamp;P1;durP1;ratioP1;P2;durP2;ratioP2
70825;SDS011;58446;41.490;22.098;2023-05-10T00:02:06;9.88;;;5.88;;
70825;SDS011;58446;41.490;22.098;2023-05-10T00:04:32;9.03;;;5.97;;
70825;SDS011;58446;41.490;22.098;2023-05-10T00:06:57;11.98;;;6.53;;
70825;SDS011;58446;41.490;22.098;2023-05-10T00:09:23;10.03;;;6.60;;
70825;SDS011;58446;41.490;22.098;2023-05-10T00:11:49;8.93;;;5.80;;
70825;SDS011;58446;41.490;22.098;2023-05-10T00:14:15;8.38;;;6.03;;
70825;SDS011;58446;41.490;22.098;2023-05-10T00:16:41;9.83;;;6.60;;
70825;SDS011;58446;41.490;22.098;2023-05-10T00:19:07;9.85;;;6.50;;
70825;SDS011;58446;41.490;22.098;2023-05-10T00:21:32;9.05;;;5.80;;
70825;SDS011;58446;41.490;22.098;2023-05-10T00:23:59;11.23;;;6.20;;
70825;SDS011;58446;41.490;22.098;2023-05-10T00:26:25;9.13;;;5.80;;
70825;SDS011;58446;41.490;22.098;2023-05-10T00:28:50;9.98;;;6.25;;
70825;SDS011;58446;41.490;22.098;2023-05-10T00:31:16;9.90;;;6.10;;
70825;SDS011;58446;41.490;22.098;2023-05-10T00:33:42;7.70;;;5.20;;
70825;SDS011;58446;41.490;22.098;2023-05-10T00:36:08;9.50;;;6.00;;
70825;SDS011;58446;41.490;22.098;2023-05-10T00:38:33;8.48;;;5.30;;
70825;SDS011;58446;41.490;22.098;2023-05-10T00:40:59;8.07;;;5.80;;
70825;SDS011;58446;41.490;22.098;2023-05-10T00:43:25;8.10;;;5.63;;
70825;SDS011;58446;41.490;22.098;2023-05-10T00:45:50;8.77;;;5.60;;
70825;SDS011;58446;41.490;22.098;2023-05-10T00:48:17;8.83;;;5.63;;
70825;SDS011;58446;41.490;22.098;2023-05-10T00:50:43;9.30;;;5.20;;
70825;SDS011;58446;41.490;22.098;2023-05-10T00:53:09;9.23;;;5.90;;
70825;SDS011;58446;41.490;22.098;2023-05-10T00:55:36;10.30;;;5.50;;
70825;SDS011;58446;41.490;22.098;2023-05-10T00:58:02;7.93;;;5.30;;
70825;SDS011;58446;41.490;22.098;2023-05-10T01:00:28;9.00;;;5.22;;
70825;SDS011;58446;41.490;22.098;2023-05-10T01:02:54;9.48;;;5.60;;
70825;SDS011;58446;41.490;22.098;2023-05-10T01:05:23;8.95;;;5.65;;
70825;SDS011;58446;41.490;22.098;2023-05-10T01:07:48;8.20;;;5.03;;
70825;SDS011;58446;41.490;22.098;2023-05-10T01:10:14;8.00;;;5.35;;
70825;SDS011;58446;41.490;22.098;2023-05-10T01:12:41;8.18;;;5.45;;
70825;SDS011;58446;41.490;22.098;2023-05-10T01:15:09;7.38;;;4.57;;
70825;SDS011;58446;41.490;22.098;2023-05-10T01:17:37;8.70;;;5.27;;
70825;SDS011;58446;41.490;22.098;2023-05-10T01:20:05;6.97;;;4.43;;
70825;SDS011;58446;41.490;22.098;2023-05-10T01:25:11;9.70;;;4.80;;
70825;SDS011;58446;41.490;22.098;2023-05-10T01:33:43;8.68;;;4.85;;
70825;SDS011;58446;41.490;22.098;2023-05-10T01:36:21;8.30;;;4.90;;
70825;SDS011;58446;41.490;22.098;2023-05-10T01:39:05;8.40;;;4.90;;
70825;SDS011;58446;41.490;22.098;2023-05-10T01:41:43;7.93;;;5.63;;
70825;SDS011;58446;41.490;22.098;2023-05-10T01:50:29;9.52;;;5.40;;
70825;SDS011;58446;41.490;22.098;2023-05-10T01:52:56;9.48;;;5.90;;
70825;SDS011;58446;41.490;22.098;2023-05-10T01:55:25;8.68;;;6.28;;
70825;SDS011;58446;41.490;22.098;2023-05-10T01:57:58;8.83;;;6.20;;
70825;SDS011;58446;41.490;22.098;2023-05-10T02:00:29;9.60;;;5.72;;
70825;SDS011;58446;41.490;22.098;2023-05-10T02:02:56;7.68;;;5.05;;
70825;SDS011;58446;41.490;22.098;2023-05-10T02:05:22;8.23;;;5.20;;
70825;SDS011;58446;41.490;22.098;2023-05-10T02:07:49;8.82;;;5.63;;
70825;SDS011;58446;41.490;22.098;2023-05-10T02:10:17;8.40;;;6.00;;
70825;SDS011;58446;41.490;22.098;2023-05-10T02:12:45;8.23;;;5.20;;
70825;SDS011;58446;41.490;22.098;2023-05-10T02:15:16;8.18;;;5.13;;
70825;SDS011;58446;41.490;22.098;2023-05-10T02:17:45;7.55;;;5.30;;
70825;SDS011;58446;41.490;22.098;2023-05-10T02:20:12;10.10;;;4.90;;
70825;SDS011;58446;41.490;22.098;2023-05-10T02:22:40;7.93;;;4.83;;
70825;SDS011;58446;41.490;22.098;2023-05-10T02:25:08;8.40;;;5.07;;
70825;SDS011;58446;41.490;22.098;2023-05-10T02:27:34;8.90;;;6.07;;
70825;SDS011;58446;41.490;22.098;2023-05-10T02:30:02;7.85;;;5.28;;
70825;SDS011;58446;41.490;22.098;2023-05-10T02:32:29;7.72;;;5.43;;
70825;SDS011;58446;41.490;22.098;2023-05-10T02:34:55;7.37;;;4.50;;
70825;SDS011;58446;41.490;22.098;2023-05-10T02:37:22;9.02;;;5.38;;
70825;SDS011;58446;41.490;22.098;2023-05-10T02:39:49;8.05;;;5.68;;
70825;SDS011;58446;41.490;22.098;2023-05-10T02:42:22;7.90;;;5.05;;
70825;SDS011;58446;41.490;22.098;2023-05-10T02:44:52;8.15;;;5.28;;
70825;SDS011;58446;41.490;22.098;2023-05-10T02:47:19;7.90;;;5.47;;
70825;SDS011;58446;41.490;22.098;2023-05-10T02:49:46;8.38;;;5.05;;
70825;SDS011;58446;41.490;22.098;2023-05-10T02:52:12;8.63;;;5.18;;
70825;SDS011;58446;41.490;22.098;2023-05-10T02:54:50;7.20;;;5.00;;
70825;SDS011;58446;41.490;22.098;2023-05-10T02:57:21;9.60;;;5.50;;
70825;SDS011;58446;41.490;22.098;2023-05-10T02:59:56;7.40;;;4.63;;
70825;SDS011;58446;41.490;22.098;2023-05-10T03:02:22;8.40;;;5.28;;
70825;SDS011;58446;41.490;22.098;2023-05-10T03:04:48;9.98;;;5.00;;
70825;SDS011;58446;41.490;22.098;2023-05-10T03:07:14;10.07;;;5.03;;
70825;SDS011;58446;41.490;22.098;2023-05-10T03:09:40;8.20;;;5.28;;
70825;SDS011;58446;41.490;22.098;2023-05-10T03:12:20;8.73;;;4.97;;
70825;SDS011;58446;41.490;22.098;2023-05-10T03:18:06;8.00;;;4.60;;
70825;SDS011;58446;41.490;22.098;2023-05-10T03:26:00;8.35;;;4.90;;
70825;SDS011;58446;41.490;22.098;2023-05-10T03:28:27;7.88;;;4.65;;
70825;SDS011;58446;41.490;22.098;2023-05-10T03:30:54;7.47;;;4.87;;
70825;SDS011;58446;41.490;22.098;2023-05-10T03:33:21;7.10;;;4.40;;
70825;SDS011;58446;41.490;22.098;2023-05-10T03:35:47;7.90;;;5.13;;
70825;SDS011;58446;41.490;22.098;2023-05-10T03:38:13;7.38;;;4.80;;
70825;SDS011;58446;41.490;22.098;2023-05-10T03:40:39;7.83;;;4.73;;
70825;SDS011;58446;41.490;22.098;2023-05-10T03:43:05;7.43;;;4.70;;
70825;SDS011;58446;41.490;22.098;2023-05-10T03:45:31;10.50;;;5.27;;
70825;SDS011;58446;41.490;22.098;2023-05-10T03:47:57;7.47;;;4.15;;
70825;SDS011;58446;41.490;22.098;2023-05-10T03:50:23;7.28;;;4.45;;
70825;SDS011;58446;41.490;22.098;2023-05-10T03:52:49;6.97;;;4.87;;
70825;SDS011;58446;41.490;22.098;2023-05-10T03:55:15;7.45;;;4.68;;
70825;SDS011;58446;41.490;22.098;2023-05-10T03:57:41;6.50;;;4.25;;
70825;SDS011;58446;41.490;22.098;2023-05-10T04:00:07;7.72;;;4.53;;
70825;SDS011;58446;41.490;22.098;2023-05-10T04:02:33;6.53;;;4.23;;
70825;SDS011;58446;41.490;22.098;2023-05-10T04:04:59;6.63;;;4.10;;
70825;SDS011;58446;41.490;22.098;2023-05-10T04:07:25;6.67;;;4.10;;
70825;SDS011;58446;41.490;22.098;2023-05-10T04:09:50;6.90;;;4.30;;
70825;SDS011;58446;41.490;22.098;2023-05-10T04:12:16;6.60;;;4.50;;
70825;SDS011;58446;41.490;22.098;2023-05-10T04:14:42;6.80;;;3.75;;
70825;SDS011;58446;41.490;22.098;2023-05-10T04:17:07;7.43;;;4.60;;
70825;SDS011;58446;41.490;22.098;2023-05-10T04:19:33;7.10;;;4.80;;
70825;SDS011;58446;41.490;22.098;2023-05-10T04:21:59;6.60;;;4.40;;
70825;SDS011;58446;41.490;22.098;2023-05-10T04:24:25;7.07;;;4.03;;
70825;SDS011;58446;41.490;22.098;2023-05-10T04:26:51;7.20;;;4.53;;
70825;SDS011;58446;41.490;22.098;2023-05-10T04:29:16;6.30;;;3.92;;
70825;SDS011;58446;41.490;22.098;2023-05-10T04:31:42;6.63;;;3.80;;
70825;SDS011;58446;41.490;22.098;2023-05-10T04:34:08;7.77;;;4.57;;
70825;SDS011;58446;41.490;22.098;2023-05-10T04:36:33;6.57;;;4.22;;
70825;SDS011;58446;41.490;22.098;2023-05-10T04:39:01;6.87;;;3.97;;
70825;SDS011;58446;41.490;22.098;2023-05-10T04:41:30;6.85;;;3.83;;
70825;SDS011;58446;41.490;22.098;2023-05-10T04:43:56;6.60;;;4.35;;
70825;SDS011;58446;41.490;22.098;2023-05-10T04:46:22;7.53;;;4.27;;
70825;SDS011;58446;41.490;22.098;2023-05-10T04:48:47;6.97;;;4.60;;
70825;SDS011;58446;41.490;22.098;2023-05-10T04:51:13;6.87;;;4.67;;
70825;SDS011;58446;41.490;22.098;2023-05-10T04:53:39;7.22;;;4.38;;
70825;SDS011;58446;41.490;22.098;2023-05-10T04:56:05;6.90;;;4.67;;
70825;SDS011;58446;41.490;22.098;2023-05-10T04:58:31;6.50;;;4.03;;
70825;SDS011;58446;41.490;22.098;2023-05-10T05:00:56;6.50;;;3.75;;
70825;SDS011;58446;41.490;22.098;2023-05-10T05:03:22;8.70;;;4.30;;
70825;SDS011;58446;41.490;22.098;2023-05-10T05:05:48;6.30;;;3.78;;
70825;SDS011;58446;41.490;22.098;2023-05-10T05:08:13;6.93;;;4.00;;
70825;SDS011;58446;41.490;22.098;2023-05-10T05:10:39;8.07;;;4.32;;
70825;SDS011;58446;41.490;22.098;2023-05-10T05:13:05;6.70;;;4.47;;
70825;SDS011;58446;41.490;22.098;2023-05-10T05:15:31;6.55;;;4.03;;
70825;SDS011;58446;41.490;22.098;2023-05-10T05:17:57;8.05;;;4.20;;
70825;SDS011;58446;41.490;22.098;2023-05-10T05:20:22;6.67;;;3.70;;
70825;SDS011;58446;41.490;22.098;2023-05-10T05:22:48;6.85;;;4.00;;
70825;SDS011;58446;41.490;22.098;2023-05-10T05:25:14;6.10;;;3.67;;
70825;SDS011;58446;41.490;22.098;2023-05-10T05:27:41;6.82;;;3.72;;
70825;SDS011;58446;41.490;22.098;2023-05-10T05:30:07;6.88;;;4.47;;
70825;SDS011;58446;41.490;22.098;2023-05-10T05:32:33;7.72;;;4.38;;
70825;SDS011;58446;41.490;22.098;2023-05-10T05:34:59;6.83;;;4.70;;
70825;SDS011;58446;41.490;22.098;2023-05-10T05:37:25;7.68;;;3.83;;
70825;SDS011;58446;41.490;22.098;2023-05-10T05:39:51;7.82;;;4.38;;
70825;SDS011;58446;41.490;22.098;2023-05-10T05:42:17;6.55;;;4.18;;
70825;SDS011;58446;41.490;22.098;2023-05-10T05:44:43;8.95;;;4.20;;
70825;SDS011;58446;41.490;22.098;2023-05-10T05:47:10;6.43;;;3.77;;
70825;SDS011;58446;41.490;22.098;2023-05-10T05:49:35;6.30;;;4.13;;
70825;SDS011;58446;41.490;22.098;2023-05-10T05:52:02;6.18;;;3.65;;
70825;SDS011;58446;41.490;22.098;2023-05-10T05:54:29;6.87;;;4.23;;
70825;SDS011;58446;41.490;22.098;2023-05-10T05:56:56;6.85;;;4.50;;
70825;SDS011;58446;41.490;22.098;2023-05-10T05:59:22;6.78;;;4.50;;
70825;SDS011;58446;41.490;22.098;2023-05-10T06:01:48;7.43;;;4.53;;
70825;SDS011;58446;41.490;22.098;2023-05-10T06:04:14;7.10;;;4.50;;
70825;SDS011;58446;41.490;22.098;2023-05-10T06:06:40;7.50;;;4.53;;
70825;SDS011;58446;41.490;22.098;2023-05-10T06:09:05;7.18;;;4.38;;
70825;SDS011;58446;41.490;22.098;2023-05-10T06:11:31;6.53;;;4.67;;
70825;SDS011;58446;41.490;22.098;2023-05-10T06:14:00;7.60;;;4.78;;
70825;SDS011;58446;41.490;22.098;2023-05-10T06:16:26;8.35;;;4.15;;
70825;SDS011;58446;41.490;22.098;2023-05-10T06:18:52;7.70;;;4.60;;
70825;SDS011;58446;41.490;22.098;2023-05-10T06:21:18;8.27;;;4.90;;
70825;SDS011;58446;41.490;22.098;2023-05-10T06:23:44;6.57;;;3.90;;
70825;SDS011;58446;41.490;22.098;2023-05-10T06:26:10;8.07;;;4.53;;
70825;SDS011;58446;41.490;22.098;2023-05-10T06:28:36;6.50;;;4.30;;
70825;SDS011;58446;41.490;22.098;2023-05-10T06:31:04;6.90;;;4.65;;
70825;SDS011;58446;41.490;22.098;2023-05-10T06:33:30;6.88;;;4.43;;
70825;SDS011;58446;41.490;22.098;2023-05-10T06:35:56;6.87;;;4.43;;
70825;SDS011;58446;41.490;22.098;2023-05-10T06:38:22;6.68;;;4.35;;
70825;SDS011;58446;41.490;22.098;2023-05-10T06:40:48;7.43;;;4.50;;
70825;SDS011;58446;41.490;22.098;2023-05-10T06:43:14;8.25;;;4.90;;
70825;SDS011;58446;41.490;22.098;2023-05-10T06:45:40;6.33;;;4.50;;
70825;SDS011;58446;41.490;22.098;2023-05-10T06:48:06;6.20;;;3.70;;
70825;SDS011;58446;41.490;22.098;2023-05-10T06:50:32;6.82;;;4.00;;
70825;SDS011;58446;41.490;22.098;2023-05-10T06:52:59;6.22;;;4.10;;
70825;SDS011;58446;41.490;22.098;2023-05-10T06:55:25;6.70;;;4.13;;
70825;SDS011;58446;41.490;22.098;2023-05-10T06:57:51;7.93;;;4.40;;
70825;SDS011;58446;41.490;22.098;2023-05-10T07:00:18;8.10;;;4.53;;
70825;SDS011;58446;41.490;22.098;2023-05-10T07:02:44;7.20;;;4.25;;
70825;SDS011;58446;41.490;22.098;2023-05-10T07:05:10;7.13;;;4.20;;
70825;SDS011;58446;41.490;22.098;2023-05-10T07:07:37;7.45;;;4.78;;
70825;SDS011;58446;41.490;22.098;2023-05-10T07:10:03;7.50;;;4.00;;
70825;SDS011;58446;41.490;22.098;2023-05-10T07:12:29;8.55;;;4.22;;
70825;SDS011;58446;41.490;22.098;2023-05-10T07:14:54;7.00;;;4.27;;
70825;SDS011;58446;41.490;22.098;2023-05-10T07:17:20;9.10;;;4.80;;
70825;SDS011;58446;41.490;22.098;2023-05-10T07:19:46;8.20;;;4.27;;
70825;SDS011;58446;41.490;22.098;2023-05-10T07:22:12;7.18;;;4.20;;
70825;SDS011;58446;41.490;22.098;2023-05-10T07:24:38;7.25;;;4.25;;
70825;SDS011;58446;41.490;22.098;2023-05-10T07:27:03;6.53;;;4.30;;
70825;SDS011;58446;41.490;22.098;2023-05-10T07:29:29;7.47;;;3.35;;
70825;SDS011;58446;41.490;22.098;2023-05-10T07:31:55;6.30;;;3.77;;
70825;SDS011;58446;41.490;22.098;2023-05-10T07:34:21;7.03;;;4.87;;
70825;SDS011;58446;41.490;22.098;2023-05-10T07:36:46;6.57;;;4.20;;
70825;SDS011;58446;41.490;22.098;2023-05-10T07:39:12;6.73;;;4.00;;
70825;SDS011;58446;41.490;22.098;2023-05-10T07:41:38;8.65;;;4.72;;
70825;SDS011;58446;41.490;22.098;2023-05-10T07:44:04;6.37;;;4.00;;
70825;SDS011;58446;41.490;22.098;2023-05-10T07:46:31;6.68;;;4.07;;
70825;SDS011;58446;41.490;22.098;2023-05-10T07:48:57;7.00;;;4.03;;
70825;SDS011;58446;41.490;22.098;2023-05-10T07:51:22;5.90;;;3.80;;
70825;SDS011;58446;41.490;22.098;2023-05-10T07:53:48;6.90;;;4.22;;
70825;SDS011;58446;41.490;22.098;2023-05-10T07:56:21;7.18;;;4.63;;
70825;SDS011;58446;41.490;22.098;2023-05-10T07:58:54;8.90;;;4.47;;
70825;SDS011;58446;41.490;22.098;2023-05-10T08:01:20;6.88;;;4.50;;
70825;SDS011;58446;41.490;22.098;2023-05-10T08:03:47;6.32;;;4.18;;
70825;SDS011;58446;41.490;22.098;2023-05-10T08:06:14;6.88;;;4.20;;
70825;SDS011;58446;41.490;22.098;2023-05-10T08:08:40;6.65;;;3.70;;
70825;SDS011;58446;41.490;22.098;2023-05-10T08:11:06;6.97;;;3.70;;
70825;SDS011;58446;41.490;22.098;2023-05-10T08:13:32;11.60;;;4.20;;
70825;SDS011;58446;41.490;22.098;2023-05-10T08:16:00;8.82;;;5.40;;
70825;SDS011;58446;41.490;22.098;2023-05-10T08:18:26;13.70;;;7.33;;
70825;SDS011;58446;41.490;22.098;2023-05-10T08:20:52;6.93;;;4.07;;
70825;SDS011;58446;41.490;22.098;2023-05-10T08:23:18;7.53;;;4.30;;
70825;SDS011;58446;41.490;22.098;2023-05-10T08:25:43;7.57;;;4.93;;
70825;SDS011;58446;41.490;22.098;2023-05-10T08:28:09;8.93;;;4.70;;
70825;SDS011;58446;41.490;22.098;2023-05-10T08:30:35;7.67;;;4.60;;
70825;SDS011;58446;41.490;22.098;2023-05-10T08:33:01;7.70;;;4.53;;
70825;SDS011;58446;41.490;22.098;2023-05-10T08:35:26;7.23;;;4.90;;
70825;SDS011;58446;41.490;22.098;2023-05-10T08:37:52;7.07;;;4.93;;
70825;SDS011;58446;41.490;22.098;2023-05-10T08:40:19;7.43;;;4.10;;
70825;SDS011;58446;41.490;22.098;2023-05-10T08:42:51;5.93;;;3.95;;
70825;SDS011;58446;41.490;22.098;2023-05-10T08:45:23;5.80;;;3.80;;
70825;SDS011;58446;41.490;22.098;2023-05-10T08:47:50;5.80;;;3.80;;
70825;SDS011;58446;41.490;22.098;2023-05-10T08:50:18;6.60;;;3.90;;
70825;SDS011;58446;41.490;22.098;2023-05-10T08:52:45;5.40;;;3.47;;
70825;SDS011;58446;41.490;22.098;2023-05-10T08:55:13;5.38;;;3.40;;
70825;SDS011;58446;41.490;22.098;2023-05-10T08:57:40;5.00;;;3.05;;
70825;SDS011;58446;41.490;22.098;2023-05-10T09:00:06;5.43;;;3.50;;
70825;SDS011;58446;41.490;22.098;2023-05-10T09:02:33;5.23;;;3.33;;
70825;SDS011;58446;41.490;22.098;2023-05-10T09:05:00;5.60;;;3.70;;
70825;SDS011;58446;41.490;22.098;2023-05-10T09:07:26;5.85;;;3.70;;
70825;SDS011;58446;41.490;22.098;2023-05-10T09:09:52;5.78;;;3.50;;
70825;SDS011;58446;41.490;22.098;2023-05-10T09:12:19;5.25;;;3.28;;
70825;SDS011;58446;41.490;22.098;2023-05-10T09:14:45;5.50;;;3.30;;
70825;SDS011;58446;41.490;22.098;2023-05-10T09:17:11;5.93;;;3.53;;
70825;SDS011;58446;41.490;22.098;2023-05-10T09:19:37;6.10;;;3.88;;
70825;SDS011;58446;41.490;22.098;2023-05-10T09:22:03;6.05;;;3.53;;
70825;SDS011;58446;41.490;22.098;2023-05-10T09:24:29;6.17;;;3.60;;
70825;SDS011;58446;41.490;22.098;2023-05-10T09:26:56;6.80;;;3.58;;
70825;SDS011;58446;41.490;22.098;2023-05-10T09:29:23;7.22;;;3.50;;
70825;SDS011;58446;41.490;22.098;2023-05-10T09:31:50;6.73;;;3.70;;
70825;SDS011;58446;41.490;22.098;2023-05-10T09:34:30;7.70;;;4.00;;
70825;SDS011;58446;41.490;22.098;2023-05-10T09:37:01;7.85;;;3.92;;
70825;SDS011;58446;41.490;22.098;2023-05-10T09:39:32;6.43;;;3.20;;
70825;SDS011;58446;41.490;22.098;2023-05-10T09:41:58;6.13;;;3.47;;
70825;SDS011;58446;41.490;22.098;2023-05-10T09:44:26;6.57;;;4.07;;
70825;SDS011;58446;41.490;22.098;2023-05-10T09:46:52;5.17;;;3.20;;
70825;SDS011;58446;41.490;22.098;2023-05-10T09:49:18;8.02;;;4.10;;
70825;SDS011;58446;41.490;22.098;2023-05-10T09:51:45;8.02;;;3.60;;
70825;SDS011;58446;41.490;22.098;2023-05-10T09:54:12;7.27;;;3.23;;
70825;SDS011;58446;41.490;22.098;2023-05-10T09:56:39;7.45;;;3.47;;
70825;SDS011;58446;41.490;22.098;2023-05-10T09:59:11;5.25;;;3.30;;
70825;SDS011;58446;41.490;22.098;2023-05-10T10:01:38;7.60;;;3.53;;
70825;SDS011;58446;41.490;22.098;2023-05-10T10:04:04;10.80;;;5.07;;
70825;SDS011;58446;41.490;22.098;2023-05-10T10:06:37;8.63;;;4.65;;
70825;SDS011;58446;41.490;22.098;2023-05-10T10:09:04;6.78;;;3.70;;
70825;SDS011;58446;41.490;22.098;2023-05-10T10:11:34;7.05;;;3.60;;
70825;SDS011;58446;41.490;22.098;2023-05-10T10:14:01;10.55;;;5.88;;
70825;SDS011;58446;41.490;22.098;2023-05-10T10:16:27;9.07;;;3.63;;
70825;SDS011;58446;41.490;22.098;2023-05-10T10:18:54;6.22;;;3.53;;
70825;SDS011;58446;41.490;22.098;2023-05-10T10:21:21;9.32;;;5.22;;
70825;SDS011;58446;41.490;22.098;2023-05-10T10:23:47;7.63;;;5.03;;
70825;SDS011;58446;41.490;22.098;2023-05-10T10:26:13;6.47;;;3.67;;
70825;SDS011;58446;41.490;22.098;2023-05-10T10:31:38;7.00;;;3.90;;
70825;SDS011;58446;41.490;22.098;2023-05-10T10:34:10;6.72;;;3.30;;
70825;SDS011;58446;41.490;22.098;2023-05-10T10:36:59;6.23;;;3.23;;
70825;SDS011;58446;41.490;22.098;2023-05-10T10:39:29;5.80;;;3.28;;
70825;SDS011;58446;41.490;22.098;2023-05-10T10:41:58;6.05;;;3.50;;
70825;SDS011;58446;41.490;22.098;2023-05-10T10:54:59;13.88;;;4.00;;
70825;SDS011;58446;41.490;22.098;2023-05-10T10:57:43;6.13;;;3.67;;
70825;SDS011;58446;41.490;22.098;2023-05-10T11:00:22;5.97;;;3.72;;
70825;SDS011;58446;41.490;22.098;2023-05-10T11:02:52;6.30;;;3.40;;
70825;SDS011;58446;41.490;22.098;2023-05-10T11:05:45;8.23;;;3.90;;
70825;SDS011;58446;41.490;22.098;2023-05-10T11:08:16;5.45;;;3.47;;
70825;SDS011;58446;41.490;22.098;2023-05-10T11:10:52;5.13;;;3.25;;
70825;SDS011;58446;41.490;22.098;2023-05-10T11:13:45;6.22;;;3.70;;
70825;SDS011;58446;41.490;22.098;2023-05-10T11:16:17;8.00;;;4.37;;
70825;SDS011;58446;41.490;22.098;2023-05-10T11:19:03;6.78;;;3.97;;
70825;SDS011;58446;41.490;22.098;2023-05-10T11:21:32;8.90;;;3.95;;
70825;SDS011;58446;41.490;22.098;2023-05-10T11:24:00;9.68;;;4.20;;
70825;SDS011;58446;41.490;22.098;2023-05-10T11:26:33;7.22;;;4.30;;
70825;SDS011;58446;41.490;22.098;2023-05-10T11:29:00;8.13;;;4.57;;
70825;SDS011;58446;41.490;22.098;2023-05-10T11:31:27;9.13;;;4.53;;
70825;SDS011;58446;41.490;22.098;2023-05-10T11:33:54;7.25;;;4.60;;
70825;SDS011;58446;41.490;22.098;2023-05-10T11:36:25;7.05;;;3.90;;
70825;SDS011;58446;41.490;22.098;2023-05-10T11:38:52;6.45;;;4.20;;
70825;SDS011;58446;41.490;22.098;2023-05-10T11:41:19;6.83;;;4.13;;
70825;SDS011;58446;41.490;22.098;2023-05-10T11:43:51;8.07;;;4.70;;
70825;SDS011;58446;41.490;22.098;2023-05-10T11:46:19;7.03;;;3.83;;
70825;SDS011;58446;41.490;22.098;2023-05-10T11:48:48;7.45;;;5.05;;
70825;SDS011;58446;41.490;22.098;2023-05-10T11:51:19;6.28;;;3.65;;
70825;SDS011;58446;41.490;22.098;2023-05-10T11:53:57;5.63;;;3.50;;
70825;SDS011;58446;41.490;22.098;2023-05-10T11:56:23;5.25;;;3.13;;
70825;SDS011;58446;41.490;22.098;2023-05-10T11:58:54;7.35;;;4.30;;
70825;SDS011;58446;41.490;22.098;2023-05-10T12:01:21;6.57;;;3.88;;
70825;SDS011;58446;41.490;22.098;2023-05-10T12:03:49;6.03;;;4.10;;
70825;SDS011;58446;41.490;22.098;2023-05-10T12:06:16;8.43;;;4.40;;
70825;SDS011;58446;41.490;22.098;2023-05-10T12:08:44;6.00;;;3.42;;
70825;SDS011;58446;41.490;22.098;2023-05-10T12:11:17;6.70;;;3.75;;
70825;SDS011;58446;41.490;22.098;2023-05-10T12:13:44;7.00;;;3.70;;
70825;SDS011;58446;41.490;22.098;2023-05-10T12:18:43;6.03;;;3.40;;
70825;SDS011;58446;41.490;22.098;2023-05-10T12:21:09;6.57;;;3.00;;
70825;SDS011;58446;41.490;22.098;2023-05-10T12:23:36;6.35;;;3.45;;
70825;SDS011;58446;41.490;22.098;2023-05-10T12:26:03;7.93;;;4.20;;
70825;SDS011;58446;41.490;22.098;2023-05-10T12:28:30;7.38;;;3.83;;
70825;SDS011;58446;41.490;22.098;2023-05-10T12:30:57;8.70;;;4.57;;
70825;SDS011;58446;41.490;22.098;2023-05-10T12:33:24;6.18;;;3.33;;
70825;SDS011;58446;41.490;22.098;2023-05-10T12:35:51;7.47;;;3.25;;
70825;SDS011;58446;41.490;22.098;2023-05-10T12:38:34;6.97;;;3.63;;
70825;SDS011;58446;41.490;22.098;2023-05-10T12:41:07;6.30;;;3.47;;
70825;SDS011;58446;41.490;22.098;2023-05-10T12:43:37;5.28;;;3.03;;
70825;SDS011;58446;41.490;22.098;2023-05-10T12:46:05;9.23;;;3.38;;
70825;SDS011;58446;41.490;22.098;2023-05-10T12:48:34;7.47;;;3.95;;
70825;SDS011;58446;41.490;22.098;2023-05-10T12:51:01;5.95;;;3.60;;
70825;SDS011;58446;41.490;22.098;2023-05-10T12:53:27;7.83;;;3.90;;
70825;SDS011;58446;41.490;22.098;2023-05-10T12:55:53;6.97;;;3.53;;
70825;SDS011;58446;41.490;22.098;2023-05-10T12:58:19;7.15;;;3.65;;
70825;SDS011;58446;41.490;22.098;2023-05-10T13:00:45;7.28;;;3.70;;
70825;SDS011;58446;41.490;22.098;2023-05-10T13:03:11;7.22;;;3.97;;
70825;SDS011;58446;41.490;22.098;2023-05-10T13:05:37;6.33;;;3.33;;
70825;SDS011;58446;41.490;22.098;2023-05-10T13:08:03;6.78;;;3.58;;
70825;SDS011;58446;41.490;22.098;2023-05-10T13:10:29;6.33;;;3.87;;
70825;SDS011;58446;41.490;22.098;2023-05-10T13:12:56;6.40;;;3.55;;
70825;SDS011;58446;41.490;22.098;2023-05-10T13:15:22;7.55;;;3.83;;
70825;SDS011;58446;41.490;22.098;2023-05-10T13:17:48;5.60;;;3.30;;
70825;SDS011;58446;41.490;22.098;2023-05-10T13:20:14;6.93;;;4.30;;
70825;SDS011;58446;41.490;22.098;2023-05-10T13:22:41;7.43;;;3.80;;
70825;SDS011;58446;41.490;22.098;2023-05-10T13:25:07;6.28;;;3.50;;
70825;SDS011;58446;41.490;22.098;2023-05-10T13:27:33;5.82;;;3.60;;
70825;SDS011;58446;41.490;22.098;2023-05-10T13:29:59;6.60;;;3.70;;
70825;SDS011;58446;41.490;22.098;2023-05-10T13:32:25;7.25;;;3.70;;
70825;SDS011;58446;41.490;22.098;2023-05-10T13:34:51;9.50;;;4.70;;
70825;SDS011;58446;41.490;22.098;2023-05-10T13:37:16;6.82;;;3.40;;
70825;SDS011;58446;41.490;22.098;2023-05-10T13:39:42;8.87;;;4.53;;
70825;SDS011;58446;41.490;22.098;2023-05-10T13:42:08;14.38;;;7.75;;
70825;SDS011;58446;41.490;22.098;2023-05-10T13:44:34;8.70;;;4.27;;
70825;SDS011;58446;41.490;22.098;2023-05-10T13:47:01;10.73;;;5.05;;
70825;SDS011;58446;41.490;22.098;2023-05-10T13:49:26;7.90;;;4.18;;
70825;SDS011;58446;41.490;22.098;2023-05-10T13:51:52;9.80;;;4.53;;
70825;SDS011;58446;41.490;22.098;2023-05-10T13:54:18;9.68;;;4.80;;
70825;SDS011;58446;41.490;22.098;2023-05-10T13:56:45;22.10;;;8.75;;
70825;SDS011;58446;41.490;22.098;2023-05-10T13:59:12;31.03;;;10.87;;
70825;SDS011;58446;41.490;22.098;2023-05-10T14:01:39;9.48;;;5.90;;
70825;SDS011;58446;41.490;22.098;2023-05-10T14:04:07;7.00;;;4.13;;
70825;SDS011;58446;41.490;22.098;2023-05-10T14:06:37;7.95;;;5.03;;
70825;SDS011;58446;41.490;22.098;2023-05-10T14:09:03;9.40;;;4.70;;
70825;SDS011;58446;41.490;22.098;2023-05-10T14:11:29;6.43;;;3.90;;
70825;SDS011;58446;41.490;22.098;2023-05-10T14:13:54;7.37;;;4.10;;
70825;SDS011;58446;41.490;22.098;2023-05-10T14:16:20;6.50;;;3.73;;
70825;SDS011;58446;41.490;22.098;2023-05-10T14:18:46;9.32;;;4.40;;
70825;SDS011;58446;41.490;22.098;2023-05-10T14:21:12;7.53;;;4.20;;
70825;SDS011;58446;41.490;22.098;2023-05-10T14:23:38;8.07;;;4.57;;
70825;SDS011;58446;41.490;22.098;2023-05-10T14:26:04;12.80;;;4.47;;
70825;SDS011;58446;41.490;22.098;2023-05-10T14:28:30;5.97;;;3.53;;
70825;SDS011;58446;41.490;22.098;2023-05-10T14:30:56;6.67;;;3.40;;
70825;SDS011;58446;41.490;22.098;2023-05-10T14:33:22;6.57;;;3.35;;
70825;SDS011;58446;41.490;22.098;2023-05-10T14:35:47;6.87;;;3.53;;
70825;SDS011;58446;41.490;22.098;2023-05-10T14:38:14;7.65;;;4.78;;
70825;SDS011;58446;41.490;22.098;2023-05-10T14:40:40;6.43;;;3.83;;
70825;SDS011;58446;41.490;22.098;2023-05-10T14:43:07;7.30;;;4.00;;
70825;SDS011;58446;41.490;22.098;2023-05-10T14:45:33;7.33;;;3.77;;
70825;SDS011;58446;41.490;22.098;2023-05-10T14:47:59;12.75;;;5.18;;
70825;SDS011;58446;41.490;22.098;2023-05-10T14:50:25;10.07;;;5.30;;
70825;SDS011;58446;41.490;22.098;2023-05-10T14:52:51;6.25;;;4.13;;
70825;SDS011;58446;41.490;22.098;2023-05-10T14:55:17;6.70;;;4.23;;
70825;SDS011;58446;41.490;22.098;2023-05-10T14:57:42;7.43;;;3.75;;
70825;SDS011;58446;41.490;22.098;2023-05-10T15:00:09;6.70;;;3.53;;
70825;SDS011;58446;41.490;22.098;2023-05-10T15:02:35;6.35;;;4.03;;
70825;SDS011;58446;41.490;22.098;2023-05-10T15:05:01;7.93;;;4.70;;
70825;SDS011;58446;41.490;22.098;2023-05-10T15:07:27;6.97;;;4.03;;
70825;SDS011;58446;41.490;22.098;2023-05-10T15:09:56;8.80;;;4.13;;
70825;SDS011;58446;41.490;22.098;2023-05-10T15:12:22;7.63;;;4.23;;
70825;SDS011;58446;41.490;22.098;2023-05-10T15:14:47;8.00;;;4.53;;